Time;durP1;ratioP1;P1;durP2;ratioP2;P2;SDS_P1;SDS_P2;PMS_P1;PMS_P2;Temp;Humidity;BMP_temperature;BMP_pressure;BME280_temperature;BME280_humidity;BME280_pressure;Samples;Min_cycle;Max_cycle;Signal;HPM_P1;HPM_P2
2021/11/01 00:01:37;;;;;;;9.45;6.72;;;;;;;;;;5014703;28;20022;-88
2021/11/01 00:04:03;;;;;;;7.43;6.50;;;;;;;;;;5033226;28;20087;-88
2021/11/01 00:06:29;;;;;;;9.50;6.28;;;;;;;;;;5037978;28;20013;-88
2021/11/01 00:08:55;;;;;;;11.68;7.05;;;;;;;;;;5014213;28;20029;-88
2021/11/01 00:11:20;;;;;;;9.67;6.57;;;;;;;;;;5014273;28;20473;-88
2021/11/01 00:13:45;;;;;;;9.40;5.72;;;;;;;;;;5014188;28;20097;-88
2021/11/01 00:16:11;;;;;;;8.20;5.60;;;;;;;;;;5031997;28;20409;-87
2021/11/01 00:18:36;;;;;;;6.68;4.65;;;;;;;;;;5031997;28;20270;-87
2021/11/01 00:21:01;;;;;;;7.80;5.43;;;;;;;;;;5032140;28;20029;-87
2021/11/01 00:23:27;;;;;;;7.05;3.95;;;;;;;;;;5032043;28;20032;-87
2021/11/01 00:25:52;;;;;;;5.10;3.40;;;;;;;;;;5031958;28;20113;-88
2021/11/01 00:28:17;;;;;;;6.70;1.70;;;;;;;;;;5031895;28;20294;-88
2021/11/01 00:30:43;;;;;;;6.63;1.65;;;;;;;;;;5035323;28;20033;-88
2021/11/01 00:33:08;;;;;;;6.43;1.50;;;;;;;;;;5031637;28;20041;-88
2021/11/01 00:35:33;;;;;;;12.00;1.80;;;;;;;;;;5013643;28;20429;-88
2021/11/01 00:37:58;;;;;;;9.00;2.00;;;;;;;;;;5013887;28;20270;-88
2021/11/01 00:40:24;;;;;;;9.60;1.70;;;;;;;;;;5031813;28;20032;-88
2021/11/01 00:42:49;;;;;;;10.35;1.77;;;;;;;;;;5014085;28;20372;-88
2021/11/01 00:45:14;;;;;;;7.30;1.57;;;;;;;;;;5013589;28;20473;-88
2021/11/01 00:47:39;;;;;;;7.68;1.60;;;;;;;;;;5013824;28;20268;-88
2021/11/01 00:50:05;;;;;;;9.70;1.77;;;;;;;;;;5033030;28;20491;-88
2021/11/01 00:52:31;;;;;;;13.35;2.08;;;;;;;;;;5013768;28;20083;-88
2021/11/01 00:55:02;;;;;;;10.57;2.65;;;;;;;;;;5031553;28;20017;-87
2021/11/01 00:57:27;;;;;;;12.88;2.05;;;;;;;;;;5013531;28;20424;-88
2021/11/01 00:59:53;;;;;;;17.30;2.72;;;;;;;;;;5012429;28;20025;-88
2021/11/01 01:02:18;;;;;;;17.17;2.88;;;;;;;;;;5031373;28;20075;-88
2021/11/01 01:04:43;;;;;;;12.53;1.90;;;;;;;;;;5013274;28;20025;-88
2021/11/01 01:07:09;;;;;;;17.92;2.15;;;;;;;;;;5031142;28;20271;-88
2021/11/01 01:09:34;;;;;;;10.53;2.03;;;;;;;;;;5031188;28;20033;-88
2021/11/01 01:12:00;;;;;;;8.45;1.90;;;;;;;;;;5013390;28;20264;-88
2021/11/01 01:14:27;;;;;;;16.58;2.92;;;;;;;;;;5017247;28;20029;-88
2021/11/01 01:16:53;;;;;;;20.00;2.30;;;;;;;;;;5012847;28;20060;-88
2021/11/01 01:19:22;;;;;;;13.68;2.03;;;;;;;;;;5013126;28;20367;-88
2021/11/01 01:24:32;;;;;;;11.18;2.10;;;;;;;;;;5031085;28;20530;-88
2021/11/01 01:26:57;;;;;;;10.80;1.98;;;;;;;;;;5012966;28;20108;-88
2021/11/01 01:29:23;;;;;;;12.98;2.00;;;;;;;;;;5012892;28;20500;-87
2021/11/01 01:31:48;;;;;;;16.38;2.13;;;;;;;;;;5013070;28;20029;-87
2021/11/01 01:34:14;;;;;;;14.13;1.90;;;;;;;;;;5013087;28;20070;-87
2021/11/01 01:36:39;;;;;;;13.30;3.13;;;;;;;;;;5013608;28;20033;-88
2021/11/01 01:39:04;;;;;;;12.40;1.80;;;;;;;;;;5030922;28;20100;-88
2021/11/01 01:41:30;;;;;;;9.35;1.92;;;;;;;;;;5030817;28;20754;-87
2021/11/01 01:43:56;;;;;;;12.30;2.00;;;;;;;;;;5030786;28;20029;-87
2021/11/01 01:46:22;;;;;;;8.05;1.95;;;;;;;;;;5013203;28;20022;-88
2021/11/01 01:48:49;;;;;;;10.23;2.20;;;;;;;;;;5012693;28;20680;-87
2021/11/01 01:51:15;;;;;;;15.48;2.85;;;;;;;;;;5030651;28;20461;-87
2021/11/01 01:53:40;;;;;;;12.27;2.15;;;;;;;;;;5030795;28;20084;-87
2021/11/01 01:56:06;;;;;;;13.25;1.92;;;;;;;;;;5030644;28;20025;-88
2021/11/01 01:58:33;;;;;;;10.32;1.95;;;;;;;;;;5030557;28;20025;-88
2021/11/01 02:01:09;;;;;;;17.30;1.90;;;;;;;;;;5015727;28;20587;-87
2021/11/01 02:03:36;;;;;;;13.07;2.13;;;;;;;;;;5033488;28;20866;-87
2021/11/01 02:06:13;;;;;;;14.38;2.47;;;;;;;;;;5032764;28;20527;-87
2021/11/01 02:08:41;;;;;;;22.63;2.75;;;;;;;;;;5015619;28;20021;-87
2021/11/01 02:11:12;;;;;;;14.68;2.55;;;;;;;;;;5018278;28;20018;-87
2021/11/01 02:13:43;;;;;;;16.35;2.58;;;;;;;;;;5019751;28;20017;-87
2021/11/01 02:16:08;;;;;;;18.03;3.00;;;;;;;;;;5037039;28;20045;-87
2021/11/01 02:18:35;;;;;;;23.55;2.92;;;;;;;;;;5019622;28;20267;-87
2021/11/01 02:21:02;;;;;;;20.75;3.92;;;;;;;;;;5020016;28;20532;-87
2021/11/01 02:23:32;;;;;;;14.88;2.97;;;;;;;;;;5019610;28;20017;-87
2021/11/01 02:26:00;;;;;;;21.30;3.80;;;;;;;;;;5037150;28;20018;-87
2021/11/01 02:28:27;;;;;;;21.00;3.15;;;;;;;;;;5019326;28;20025;-87
2021/11/01 02:30:53;;;;;;;18.75;3.60;;;;;;;;;;5019044;28;20072;-87
2021/11/01 02:33:19;;;;;;;21.88;4.25;;;;;;;;;;5019169;28;20781;-87
2021/11/01 02:35:45;;;;;;;19.30;3.05;;;;;;;;;;5019248;28;20067;-87
2021/11/01 02:38:14;;;;;;;17.60;2.95;;;;;;;;;;5037033;28;20389;-87
2021/11/01 02:40:40;;;;;;;25.42;4.15;;;;;;;;;;5037174;28;20025;-87
2021/11/01 02:43:05;;;;;;;21.33;3.50;;;;;;;;;;5019163;28;20021;-87
2021/11/01 02:45:31;;;;;;;24.10;4.00;;;;;;;;;;5018916;28;20053;-87
2021/11/01 02:47:56;;;;;;;22.65;3.42;;;;;;;;;;5019157;28;20017;-87
2021/11/01 02:50:22;;;;;;;20.08;3.50;;;;;;;;;;5036577;28;20394;-87
2021/11/01 02:52:47;;;;;;;28.70;4.25;;;;;;;;;;5036271;28;20013;-87
2021/11/01 02:55:14;;;;;;;26.83;4.40;;;;;;;;;;5017713;28;20454;-87
2021/11/01 02:57:41;;;;;;;27.25;3.78;;;;;;;;;;5034841;28;20049;-87
2021/11/01 03:00:07;;;;;;;20.58;3.60;;;;;;;;;;5035199;28;20024;-87
2021/11/01 03:02:34;;;;;;;17.85;3.83;;;;;;;;;;5016071;28;20502;-87
2021/11/01 03:05:00;;;;;;;19.92;4.00;;;;;;;;;;5015281;28;20025;-86
2021/11/01 03:07:26;;;;;;;17.90;3.80;;;;;;;;;;5015474;28;20120;-87
2021/11/01 03:09:51;;;;;;;27.83;4.15;;;;;;;;;;5014866;28;20108;-87
2021/11/01 03:12:17;;;;;;;25.90;3.50;;;;;;;;;;5015343;28;20106;-87
2021/11/01 03:14:45;;;;;;;31.20;5.85;;;;;;;;;;5033033;28;20072;-87
2021/11/01 03:17:18;;;;;;;34.50;5.50;;;;;;;;;;5015106;28;20107;-87
2021/11/01 03:19:45;;;;;;;34.83;3.90;;;;;;;;;;5032986;28;20018;-87
2021/11/01 03:22:11;;;;;;;32.83;5.20;;;;;;;;;;5032751;28;20543;-87
2021/11/01 03:24:39;;;;;;;27.63;4.63;;;;;;;;;;5032774;28;20098;-87
2021/11/01 03:27:06;;;;;;;31.48;5.43;;;;;;;;;;5014814;28;20021;-87
2021/11/01 03:29:32;;;;;;;24.25;4.80;;;;;;;;;;5015089;28;20029;-87
2021/11/01 03:31:58;;;;;;;26.58;4.40;;;;;;;;;;5033032;28;20021;-87
2021/11/01 03:34:24;;;;;;;27.50;4.55;;;;;;;;;;5015219;28;20132;-87
2021/11/01 03:36:51;;;;;;;25.20;4.40;;;;;;;;;;5033452;28;20220;-87
2021/11/01 03:39:17;;;;;;;29.65;4.13;;;;;;;;;;5034633;28;20104;-87
2021/11/01 03:41:43;;;;;;;29.48;5.22;;;;;;;;;;5017994;28;20044;-87
2021/11/01 03:44:15;;;;;;;30.40;5.50;;;;;;;;;;5036580;28;20017;-87
2021/11/01 03:46:43;;;;;;;27.30;5.20;;;;;;;;;;5035626;28;20041;-87
2021/11/01 03:49:09;;;;;;;31.25;6.80;;;;;;;;;;5017718;28;20032;-87
2021/11/01 03:54:17;;;;;;;27.55;4.85;;;;;;;;;;5035694;28;20064;-87
2021/11/01 03:56:44;;;;;;;30.75;6.32;;;;;;;;;;5035202;28;20390;-87
2021/11/01 03:59:09;;;;;;;33.50;5.65;;;;;;;;;;5035433;28;20097;-87
2021/11/01 04:01:36;;;;;;;25.83;5.05;;;;;;;;;;5035410;28;20101;-87
2021/11/01 04:04:01;;;;;;;41.05;7.22;;;;;;;;;;5017409;28;20013;-87
2021/11/01 04:06:27;;;;;;;22.50;4.82;;;;;;;;;;5016985;28;20028;-87
2021/11/01 04:08:53;;;;;;;38.25;6.72;;;;;;;;;;5014152;28;20025;-87
2021/11/01 04:11:18;;;;;;;35.97;7.30;;;;;;;;;;5031884;28;20028;-87
2021/11/01 04:13:43;;;;;;;29.02;5.97;;;;;;;;;;5014186;28;20035;-87
2021/11/01 04:16:14;;;;;;;30.70;5.82;;;;;;;;;;5013625;28;20053;-87
2021/11/01 04:18:59;;;;;;;32.40;6.70;;;;;;;;;;5014219;28;20026;-87
2021/11/01 04:21:24;;;;;;;37.75;7.00;;;;;;;;;;5013884;28;20359;-87
2021/11/01 04:23:49;;;;;;;29.07;4.90;;;;;;;;;;5013943;28;20109;-87
2021/11/01 04:26:17;;;;;;;26.98;5.65;;;;;;;;;;5014201;28;20278;-87
2021/11/01 04:28:42;;;;;;;39.33;8.88;;;;;;;;;;5014039;28;20049;-87
2021/11/01 04:31:15;;;;;;;33.33;6.53;;;;;;;;;;5014128;28;20460;-87
2021/11/01 04:33:42;;;;;;;35.70;6.30;;;;;;;;;;5031764;28;20025;-87
2021/11/01 04:36:07;;;;;;;34.05;6.57;;;;;;;;;;5031731;28;20021;-87
2021/11/01 04:41:11;;;;;;;28.23;6.43;;;;;;;;;;5031706;28;20032;-87
2021/11/01 04:44:11;;;;;;;22.95;5.72;;;;;;;;;;5013943;28;20397;-87
2021/11/01 04:54:51;;;;;;;31.13;6.40;;;;;;;;;;5031476;28;20044;-86
2021/11/01 04:57:17;;;;;;;30.55;5.50;;;;;;;;;;5031107;28;20136;-87
2021/11/01 04:59:43;;;;;;;25.35;5.20;;;;;;;;;;5013493;28;20498;-87
2021/11/01 05:02:08;;;;;;;29.15;4.18;;;;;;;;;;5031054;28;20124;-86
2021/11/01 05:04:36;;;;;;;33.40;7.23;;;;;;;;;;5013144;28;20393;-86
2021/11/01 05:07:03;;;;;;;26.80;5.03;;;;;;;;;;5015936;28;20271;-87
2021/11/01 05:18:13;;;;;;;23.20;5.40;;;;;;;;;;5030795;28;19947;-87
2021/11/01 05:24:57;;;;;;;26.67;4.93;;;;;;;;;;5031210;28;20036;-86
2021/11/01 05:27:38;;;;;;;35.67;5.10;;;;;;;;;;5013151;28;20367;-86
2021/11/01 05:30:07;;;;;;;29.10;4.95;;;;;;;;;;5031633;28;20040;-86
2021/11/01 05:32:33;;;;;;;22.90;5.28;;;;;;;;;;5012840;28;20017;-86
2021/11/01 05:34:59;;;;;;;28.02;4.72;;;;;;;;;;5012874;28;20025;-86
2021/11/01 05:37:24;;;;;;;34.13;5.00;;;;;;;;;;5031054;28;20497;-86
2021/11/01 05:39:50;;;;;;;32.17;6.33;;;;;;;;;;5020694;28;20025;-86
2021/11/01 05:42:15;;;;;;;37.47;5.15;;;;;;;;;;5045754;28;20628;-86
2021/11/01 05:44:40;;;;;;;27.77;5.00;;;;;;;;;;5052893;28;20025;-86
2021/11/01 05:47:06;;;;;;;45.15;5.65;;;;;;;;;;5053553;28;20267;-86
2021/11/01 05:49:32;;;;;;;30.85;5.22;;;;;;;;;;5035291;28;20041;-86
2021/11/01 05:51:57;;;;;;;28.65;6.07;;;;;;;;;;5040851;28;20021;-86
2021/11/01 05:54:26;;;;;;;30.35;5.47;;;;;;;;;;5032687;28;20020;-86
2021/11/01 06:03:04;;;;;;;36.63;5.97;;;;;;;;;;5044072;28;20036;-86
2021/11/01 06:05:24;;;;;;;25.35;5.03;;;;;;;;;;5047858;28;20110;-86
2021/11/01 06:08:08;;;;;;;32.33;5.38;;;;;;;;;;5050215;28;20203;-86
2021/11/01 06:15:52;;;;;;;27.92;5.65;;;;;;;;;;5050698;28;20060;-86
2021/11/01 06:18:17;;;;;;;32.17;5.60;;;;;;;;;;5028812;28;20470;-86
2021/11/01 06:20:42;;;;;;;25.67;4.35;;;;;;;;;;5012267;28;20025;-86
2021/11/01 06:23:08;;;;;;;30.63;5.47;;;;;;;;;;5012451;28;20385;-86
2021/11/01 06:25:33;;;;;;;30.92;6.28;;;;;;;;;;5029907;28;20260;-86
2021/11/01 06:27:58;;;;;;;27.05;5.75;;;;;;;;;;5029521;28;20105;-86
2021/11/01 06:30:31;;;;;;;28.67;5.68;;;;;;;;;;5011630;28;20033;-86
2021/11/01 06:43:25;;;;;;;23.02;4.85;;;;;;;;;;5051934;28;20505;-86
2021/11/01 06:54:12;;;;;;;29.52;5.43;;;;;;;;;;5052777;28;20033;-86
2021/11/01 07:20:36;;;;;;;37.22;5.30;;;;;;;;;;5032745;28;20026;-87
2021/11/01 08:26:23;;;;;;;24.75;4.80;;;;;;;;;;5032263;28;20497;-87
2021/11/01 08:47:47;;;;;;;18.17;4.17;;;;;;;;;;5031344;28;20025;-87
2021/11/01 09:04:13;;;;;;;22.33;4.40;;;;;;;;;;4931181;29;20072;-87
2021/11/01 09:20:35;;;;;;;18.77;5.07;;;;;;;;;;5029545;28;20092;-87
2021/11/01 09:25:43;;;;;;;19.23;5.15;;;;;;;;;;5030368;28;20025;-87
2021/11/01 09:28:14;;;;;;;20.08;5.70;;;;;;;;;;5030304;28;20831;-87
2021/11/01 09:35:58;;;;;;;17.88;5.68;;;;;;;;;;5030209;28;20155;-87
2021/11/01 09:43:18;;;;;;;19.08;5.00;;;;;;;;;;5070227;28;20044;-87
2021/11/01 09:45:44;;;;;;;17.13;5.50;;;;;;;;;;5051733;28;20048;-87
2021/11/01 09:48:09;;;;;;;22.08;5.75;;;;;;;;;;5052120;28;20023;-87
2021/11/01 09:50:35;;;;;;;18.30;4.95;;;;;;;;;;5046965;28;20036;-87
2021/11/01 09:53:01;;;;;;;16.63;4.82;;;;;;;;;;5032331;28;20519;-88
2021/11/01 10:00:53;;;;;;;18.77;5.03;;;;;;;;;;5049835;28;20033;-88
2021/11/01 10:03:29;;;;;;;16.58;5.20;;;;;;;;;;5031907;28;20469;-87
2021/11/01 10:05:55;;;;;;;18.27;4.60;;;;;;;;;;5049622;28;20028;-87
2021/11/01 10:08:20;;;;;;;15.68;4.53;;;;;;;;;;5049680;28;20026;-87
2021/11/01 10:10:45;;;;;;;15.93;4.03;;;;;;;;;;5049531;28;20040;-87
2021/11/01 10:13:14;;;;;;;17.97;4.47;;;;;;;;;;5065038;28;20025;-87
2021/11/01 10:18:23;;;;;;;17.50;3.92;;;;;;;;;;5045673;28;20072;-87
2021/11/01 10:20:58;;;;;;;16.65;4.35;;;;;;;;;;5011768;28;20061;-87
2021/11/01 10:23:24;;;;;;;11.27;3.90;;;;;;;;;;5012053;28;20098;-87
2021/11/01 10:26:04;;;;;;;15.35;3.67;;;;;;;;;;5011734;28;20033;-87
2021/11/01 10:28:30;;;;;;;15.82;4.57;;;;;;;;;;5029555;28;20071;-87
2021/11/01 10:31:05;;;;;;;11.23;4.55;;;;;;;;;;5030143;28;20080;-87
2021/11/01 10:33:32;;;;;;;18.88;3.97;;;;;;;;;;5015424;28;20078;-87
2021/11/01 10:35:58;;;;;;;11.25;3.58;;;;;;;;;;5033237;28;20053;-87
2021/11/01 10:38:30;;;;;;;14.90;4.70;;;;;;;;;;5033352;28;20063;-87
2021/11/01 10:46:32;;;;;;;;;;;;;;;;;;5073984;28;20063;-87
2021/11/01 11:13:24;;;;;;;14.68;3.72;;;;;;;;;;5073139;28;20430;-88
2021/11/01 11:15:53;;;;;;;12.00;4.70;;;;;;;;;;5054435;28;20048;-88
2021/11/01 11:21:02;;;;;;;10.73;3.60;;;;;;;;;;5073211;28;20079;-88
2021/11/01 11:29:05;;;;;;;16.63;4.10;;;;;;;;;;5073259;28;20122;-87
2021/11/01 11:48:22;;;;;;;12.35;3.83;;;;;;;;;;5035411;28;20048;-87
2021/11/01 11:50:47;;;;;;;15.23;3.85;;;;;;;;;;5034824;28;20397;-87
2021/11/01 11:53:13;;;;;;;10.93;3.40;;;;;;;;;;5015666;28;20028;-87
2021/11/01 11:55:40;;;;;;;13.80;2.97;;;;;;;;;;5015755;28;20874;-87
2021/11/01 11:58:06;;;;;;;10.10;2.83;;;;;;;;;;5034917;28;20029;-88
2021/11/01 12:00:32;;;;;;;17.05;4.60;;;;;;;;;;5034719;28;20018;-88
2021/11/01 12:03:08;;;;;;;10.50;3.20;;;;;;;;;;5014611;28;20170;-87
2021/11/01 12:05:37;;;;;;;10.05;2.85;;;;;;;;;;5033957;28;20009;-87
2021/11/01 12:08:10;;;;;;;10.27;3.13;;;;;;;;;;5034382;28;20105;-87
2021/11/01 12:13:53;;;;;;;11.93;2.85;;;;;;;;;;5034188;28;20095;-88
2021/11/01 12:18:56;;;;;;;9.93;2.30;;;;;;;;;;5054739;28;20071;-88
2021/11/01 12:21:22;;;;;;;9.13;2.58;;;;;;;;;;5036228;28;20025;-88
2021/11/01 12:23:49;;;;;;;7.78;2.33;;;;;;;;;;5036310;28;20017;-88
2021/11/01 12:26:15;;;;;;;6.20;2.50;;;;;;;;;;5049034;28;20104;-85
2021/11/01 12:28:48;;;;;;;5.40;2.00;;;;;;;;;;5015154;28;20025;-85
2021/11/01 12:31:13;;;;;;;9.57;2.67;;;;;;;;;;5034133;28;20120;-85
2021/11/01 12:33:51;;;;;;;9.57;2.20;;;;;;;;;;5034053;28;20041;-85
2021/11/01 12:36:19;;;;;;;9.13;2.08;;;;;;;;;;5032621;28;20022;-85
2021/11/01 12:38:53;;;;;;;5.50;2.00;;;;;;;;;;5017047;28;20021;-85
2021/11/01 12:41:51;;;;;;;5.95;1.92;;;;;;;;;;5029375;28;20166;-86
2021/11/01 12:58:29;;;;;;;7.75;2.38;;;;;;;;;;5037376;28;20024;-86
2021/11/01 13:00:55;;;;;;;5.57;1.80;;;;;;;;;;5052106;28;20009;-86
2021/11/01 13:03:21;;;;;;;8.65;2.45;;;;;;;;;;5035988;28;20814;-85
2021/11/01 13:05:54;;;;;;;9.80;1.98;;;;;;;;;;5053585;28;20025;-85
2021/11/01 13:08:43;;;;;;;8.88;2.92;;;;;;;;;;5035750;28;20071;-86
2021/11/01 13:11:27;;;;;;;10.50;2.40;;;;;;;;;;5052907;28;20029;-86
2021/11/01 13:19:22;;;;;;;8.07;2.70;;;;;;;;;;5051175;28;20070;-86
2021/11/01 13:24:14;;;;;;;9.65;2.13;;;;;;;;;;5048350;28;20025;-86
2021/11/01 13:26:56;;;;;;;7.57;1.90;;;;;;;;;;5020216;28;20528;-86
2021/11/01 13:37:27;;;;;;;16.00;2.50;;;;;;;;;;5053397;28;20530;-86
2021/11/01 13:39:59;;;;;;;15.13;2.97;;;;;;;;;;5052480;28;20017;-86
2021/11/01 13:42:24;;;;;;;8.20;2.33;;;;;;;;;;5036376;28;20404;-86
2021/11/01 13:44:49;;;;;;;10.57;2.30;;;;;;;;;;5033747;28;20028;-86
2021/11/01 13:47:16;;;;;;;11.40;2.25;;;;;;;;;;5034718;28;20021;-86
2021/11/01 13:49:44;;;;;;;12.43;2.58;;;;;;;;;;5032487;28;20028;-86
2021/11/01 13:52:31;;;;;;;10.18;2.55;;;;;;;;;;5016826;28;20022;-86
2021/11/01 13:55:02;;;;;;;7.55;2.80;;;;;;;;;;5034888;28;20107;-86
2021/11/01 13:57:31;;;;;;;9.52;2.10;;;;;;;;;;5021356;28;20021;-86
2021/11/01 14:00:18;;;;;;;9.25;1.92;;;;;;;;;;5049964;28;20427;-86
2021/11/01 14:03:01;;;;;;;9.60;2.25;;;;;;;;;;5052682;28;20396;-86
2021/11/01 14:11:06;;;;;;;9.18;2.15;;;;;;;;;;5045388;28;20055;-86
2021/11/01 14:27:48;;;;;;;10.05;2.97;;;;;;;;;;5036428;28;20034;-86
2021/11/01 15:09:22;;;;;;;6.38;2.58;;;;;;;;;;5076672;28;20074;-86
2021/11/01 15:22:19;;;;;;;17.48;2.92;;;;;;;;;;5044777;28;20532;-86
2021/11/01 15:25:12;;;;;;;10.85;2.53;;;;;;;;;;5017297;28;20473;-86
2021/11/01 15:36:03;;;;;;;8.68;2.72;;;;;;;;;;5036527;28;20818;-86
2021/11/01 16:17:19;;;;;;;6.38;2.95;;;;;;;;;;5045166;28;20100;-86
2021/11/01 16:19:49;;;;;;;15.23;3.83;;;;;;;;;;5016871;28;20032;-86
2021/11/01 16:22:16;;;;;;;8.65;2.50;;;;;;;;;;5034226;28;20071;-86
2021/11/01 16:24:42;;;;;;;7.57;2.80;;;;;;;;;;5033562;28;20024;-86
2021/11/01 16:27:08;;;;;;;7.10;2.65;;;;;;;;;;5024938;28;20016;-86
2021/11/01 16:32:14;;;;;;;12.45;2.70;;;;;;;;;;5054628;28;20021;-86
2021/11/01 16:34:40;;;;;;;7.95;2.53;;;;;;;;;;5043262;28;20384;-86
2021/11/01 16:39:47;;;;;;;13.13;3.97;;;;;;;;;;5032273;28;20063;-87
2021/11/01 16:42:12;;;;;;;18.77;4.18;;;;;;;;;;5035858;28;20032;-87
2021/11/01 16:44:39;;;;;;;16.45;2.63;;;;;;;;;;5036092;28;20111;-86
2021/11/01 16:47:04;;;;;;;11.10;2.88;;;;;;;;;;5053779;28;20025;-86
2021/11/01 16:49:30;;;;;;;10.02;3.33;;;;;;;;;;5052039;28;20032;-86
2021/11/01 16:51:56;;;;;;;7.45;2.70;;;;;;;;;;5018079;28;20113;-86
2021/11/01 16:54:30;;;;;;;12.18;2.97;;;;;;;;;;5033974;28;20052;-86
2021/11/01 16:57:03;;;;;;;9.93;2.67;;;;;;;;;;5016095;28;20033;-86
2021/11/01 16:59:42;;;;;;;10.10;2.70;;;;;;;;;;5032871;28;20115;-86
2021/11/01 17:04:35;;;;;;;8.77;2.80;;;;;;;;;;5060890;22;20068;-88
2021/11/01 17:07:10;;;;;;;10.30;3.03;;;;;;;;;;5053920;28;20025;-87
2021/11/01 17:10:12;;;;;;;14.40;3.40;;;;;;;;;;5035343;28;20124;-87
2021/11/01 17:26:10;;;;;;;12.90;4.15;;;;;;;;;;5051352;28;20028;-86
2021/11/01 17:36:49;;;;;;;12.65;3.65;;;;;;;;;;5031255;28;20152;-88
2021/11/01 18:39:38;;;;;;;;;;;;;;;;;;5053164;28;20488;-86
2021/11/01 18:53:06;;;;;;;10.63;3.78;;;;;;;;;;5054762;28;20036;-87
2021/11/01 18:55:32;;;;;;;11.27;3.88;;;;;;;;;;5037593;28;20024;-86
2021/11/01 18:57:58;;;;;;;12.65;4.65;;;;;;;;;;5035985;28;20495;-86
2021/11/01 19:00:24;;;;;;;11.32;4.25;;;;;;;;;;5037308;28;20017;-86
2021/11/01 19:02:50;;;;;;;6.10;4.13;;;;;;;;;;5055719;28;20104;-86
2021/11/01 19:05:31;;;;;;;9.38;3.95;;;;;;;;;;5037919;28;20107;-86
2021/11/01 19:08:04;;;;;;;10.77;4.20;;;;;;;;;;5036022;28;20055;-86
2021/11/01 21:27:15;;;;;;;10.00;3.75;;;;;;;;;;5040587;28;20035;-87
2021/11/01 21:29:41;;;;;;;14.55;4.85;;;;;;;;;;5035893;28;20115;-87
2021/11/01 21:32:06;;;;;;;12.70;4.47;;;;;;;;;;5035581;28;20509;-87
2021/11/01 21:36:57;;;;;;;10.07;4.50;;;;;;;;;;5053986;28;20079;-88
2021/11/01 21:39:23;;;;;;;11.10;5.30;;;;;;;;;;5053430;28;20036;-88
2021/11/01 21:41:48;;;;;;;18.05;5.60;;;;;;;;;;5035631;28;20066;-88
2021/11/01 21:44:13;;;;;;;10.23;5.57;;;;;;;;;;5035696;28;20032;-88
2021/11/01 21:46:38;;;;;;;8.38;5.00;;;;;;;;;;5053242;28;20025;-88
2021/11/01 21:49:03;;;;;;;9.20;5.57;;;;;;;;;;5035587;28;20016;-88
2021/11/01 21:51:31;;;;;;;8.97;5.50;;;;;;;;;;5053489;28;20404;-88
2021/11/01 21:54:16;;;;;;;14.95;4.65;;;;;;;;;;5035844;28;20271;-88
2021/11/01 21:56:44;;;;;;;11.75;4.60;;;;;;;;;;5035884;28;20021;-88
2021/11/01 22:10:20;;;;;;;12.30;5.60;;;;;;;;;;5053178;28;20045;-87
2021/11/01 22:21:02;;;;;;;10.40;6.05;;;;;;;;;;5053044;28;20876;-87
2021/11/01 22:24:12;;;;;;;10.93;5.72;;;;;;;;;;5053038;28;20761;-87
2021/11/01 22:26:26;;;;;;;17.45;5.70;;;;;;;;;;5044746;28;20384;-87
2021/11/01 22:32:28;;;;;;;11.60;6.30;;;;;;;;;;4995868;28;20037;-87
2021/11/01 22:42:45;;;;;;;29.90;7.47;;;;;;;;;;5057189;28;20464;-87
2021/11/01 22:55:57;;;;;;;13.40;6.95;;;;;;;;;;5056787;28;20027;-87
2021/11/01 22:58:23;;;;;;;17.10;7.45;;;;;;;;;;5056372;28;20017;-88
2021/11/01 23:01:10;;;;;;;12.30;6.00;;;;;;;;;;5039013;28;20017;-88
2021/11/01 23:03:55;;;;;;;15.10;5.40;;;;;;;;;;5056156;28;20111;-88
2021/11/01 23:33:27;;;;;;;17.05;7.97;;;;;;;;;;5055921;28;20036;-87
2021/11/01 23:35:54;;;;;;;14.25;7.03;;;;;;;;;;5037959;28;20013;-87
2021/11/01 23:38:19;;;;;;;12.85;7.65;;;;;;;;;;5037176;28;20044;-87
2021/11/01 23:40:45;;;;;;;12.85;7.13;;;;;;;;;;5037451;28;20569;-87
2021/11/01 23:43:13;;;;;;;15.32;7.60;;;;;;;;;;5055831;28;20016;-88
2021/11/01 23:45:48;;;;;;;14.85;6.65;;;;;;;;;;5037683;28;20082;-88
2021/11/01 23:48:13;;;;;;;16.33;7.55;;;;;;;;;;5037830;28;20112;-88
2021/11/01 23:50:39;;;;;;;12.07;6.97;;;;;;;;;;5037504;28;20124;-88
2021/11/01 23:53:22;;;;;;;15.25;7.40;;;;;;;;;;5037706;28;20748;-88
2021/11/01 23:55:47;;;;;;;15.15;8.30;;;;;;;;;;5037679;28;20035;-88
2021/11/01 23:58:13;;;;;;;16.13;6.40;;;;;;;;;;5055504;28;20017;-88
